createdAt,value
2019-01-26T00:03:51.028Z,99998.22
2019-01-26T00:06:16.887Z,99996.23
2019-01-26T00:08:42.657Z,99993.49
2019-01-26T00:11:08.526Z,100005.55
2019-01-26T00:13:34.282Z,99995.33
2019-01-26T00:16:21.180Z,99980.88
2019-01-26T00:18:47.606Z,99980.88
2019-01-26T00:21:13.376Z,99972.38
2019-01-26T00:23:39.135Z,99971.63
2019-01-26T00:26:04.919Z,99963.78
2019-01-26T00:28:30.672Z,99963.78
2019-01-26T00:30:56.441Z,99973.59
2019-01-26T00:33:22.199Z,99947.77
2019-01-26T00:35:48.144Z,99957.94
2019-01-26T00:38:13.902Z,99950.44
2019-01-26T00:40:39.673Z,99947.73
2019-01-26T00:43:05.427Z,99948.86
2019-01-26T00:45:31.203Z,99945.56
2019-01-26T00:47:56.962Z,99937.23
2019-01-26T00:50:22.735Z,99940.56
2019-01-26T00:52:48.823Z,99922.13
2019-01-26T00:55:14.699Z,99919.69
2019-01-26T00:57:40.457Z,99911.33
2019-01-26T01:00:26.108Z,99893.51
2019-01-26T01:02:51.874Z,99887.67
2019-01-26T01:05:17.662Z,99884.68
2019-01-26T01:08:25.113Z,99872.15
2019-01-26T01:10:50.867Z,99882.94
2019-01-26T01:13:16.616Z,99889.13
2019-01-26T01:15:42.378Z,99881.26
2019-01-26T01:18:08.128Z,99879.78
2019-01-26T01:20:33.912Z,99876.86
2019-01-26T01:22:59.684Z,99875.80
2019-01-26T01:25:25.431Z,99880.67
2019-01-26T01:27:51.204Z,99878.91
2019-01-26T01:30:36.863Z,99877.31
2019-01-26T01:33:02.753Z,99885.10
2019-01-26T01:35:28.502Z,99887.89
2019-01-26T01:37:54.283Z,99881.59
2019-01-26T01:40:20.029Z,99884.80
2019-01-26T01:42:45.796Z,99880.52
2019-01-26T01:45:53.236Z,99884.22
2019-01-26T01:48:18.986Z,99881.91
2019-01-26T01:50:44.740Z,99876.88
2019-01-26T01:55:44.144Z,99871.77
2019-01-26T01:58:09.913Z,99876.78
2019-01-26T02:00:35.672Z,99863.53
2019-01-26T02:03:01.442Z,99859.62
2019-01-26T02:05:27.194Z,99851.73
2019-01-26T02:07:52.978Z,99861.39
2019-01-26T02:11:00.425Z,99862.37
2019-01-26T02:13:26.193Z,99865.08
2019-01-26T02:15:51.921Z,99870.73
2019-01-26T02:18:17.735Z,99866.78
2019-01-26T02:20:43.488Z,99861.48
2019-01-26T02:23:09.368Z,99865.80
2019-01-26T02:25:35.119Z,99848.80
2019-01-26T02:28:00.889Z,99849.67
2019-01-26T02:30:26.656Z,99844.38
2019-01-26T02:32:52.420Z,99848.72
2019-01-26T02:35:18.177Z,99846.41
2019-01-26T02:37:43.950Z,99854.08
2019-01-26T02:40:52.351Z,99859.73
2019-01-26T02:43:19.055Z,99860.77
2019-01-26T02:45:44.805Z,99856.52
2019-01-26T02:48:10.579Z,99857.56
2019-01-26T02:50:36.329Z,99860.90
2019-01-26T02:53:02.112Z,99856.39
2019-01-26T02:55:27.867Z,99852.77
2019-01-26T02:57:53.736Z,99856.73
2019-01-26T03:01:01.161Z,99855.59
2019-01-26T03:03:26.940Z,99847.35
2019-01-26T03:05:52.689Z,99840.37
2019-01-26T03:08:18.473Z,99838.73
2019-01-26T03:10:44.235Z,99839.28
2019-01-26T03:13:10.000Z,99836.47
2019-01-26T03:15:35.752Z,99837.16
2019-01-26T03:18:01.525Z,99836.87
2019-01-26T03:20:27.276Z,99833.70
2019-01-26T03:22:53.061Z,99830.58
2019-01-26T03:25:18.816Z,99824.13
2019-01-26T03:27:44.588Z,99823.33
2019-01-26T03:30:30.232Z,99837.62
2019-01-26T03:32:56.001Z,99824.06
2019-01-26T03:35:21.747Z,99828.22
2019-01-26T03:37:47.524Z,99825.91
2019-01-26T03:40:54.958Z,99819.63
2019-01-26T03:43:20.762Z,99819.46
2019-01-26T03:45:46.530Z,99814.33
2019-01-26T03:48:12.301Z,99815.23
2019-01-26T03:50:38.056Z,99812.25
2019-01-26T03:53:03.828Z,99814.94
2019-01-26T03:55:29.584Z,99818.63
2019-01-26T03:57:55.350Z,99821.62
2019-01-26T04:00:41.036Z,99817.47
2019-01-26T04:03:06.782Z,99816.66
2019-01-26T04:05:32.641Z,99813.31
2019-01-26T04:07:58.459Z,99805.83
2019-01-26T04:10:24.225Z,99801.55
2019-01-26T04:12:49.976Z,99811.34
2019-01-26T04:15:57.445Z,99813.67
2019-01-26T04:18:23.182Z,99805.58
2019-01-26T04:23:22.532Z,99798.81
2019-01-26T04:25:48.292Z,99795.18
2019-01-26T04:28:14.141Z,99789.05
2019-01-26T04:30:39.913Z,99798.22
2019-01-26T04:35:53.196Z,99795.39
2019-01-26T04:38:18.945Z,99794.57
2019-01-26T04:40:45.015Z,99783.44
2019-01-26T04:45:58.473Z,99776.02
2019-01-26T04:48:24.226Z,99770.23
2019-01-26T04:50:49.997Z,99772.55
2019-01-26T04:53:15.751Z,99774.77
2019-01-26T04:55:41.667Z,99772.83
2019-01-26T04:58:07.411Z,99771.50
2019-01-26T05:00:33.175Z,99765.37
2019-01-26T05:02:58.931Z,99762.09
2019-01-26T05:05:24.711Z,99755.31
2019-01-26T05:08:32.153Z,99752.00
2019-01-26T05:10:57.922Z,99743.04
2019-01-26T05:13:23.679Z,99738.11
2019-01-26T05:15:49.444Z,99734.77
2019-01-26T05:18:15.204Z,99738.81
2019-01-26T05:20:40.952Z,99737.81
2019-01-26T05:23:06.715Z,99744.77
2019-01-26T05:25:32.467Z,99738.82
2019-01-26T05:27:58.254Z,99737.48
2019-01-26T05:31:05.713Z,99736.34
2019-01-26T05:33:31.457Z,99731.67
2019-01-26T05:35:57.219Z,99737.84
2019-01-26T05:38:22.988Z,99736.83
2019-01-26T05:40:48.740Z,99737.01
2019-01-26T05:43:14.517Z,99726.23
2019-01-26T05:45:40.262Z,99740.18
2019-01-26T05:48:25.915Z,99746.16
2019-01-26T05:50:51.664Z,99735.22
2019-01-26T05:53:17.442Z,99736.21
2019-01-26T05:55:43.195Z,99735.55
2019-01-26T05:58:09.058Z,99737.86
2019-01-26T06:03:22.133Z,99730.39
2019-01-26T06:05:47.883Z,99737.56
2019-01-26T06:08:13.660Z,99724.60
2019-01-26T06:10:39.409Z,99723.43
2019-01-26T06:13:05.180Z,99718.61
2019-01-26T06:15:30.939Z,99716.80
2019-01-26T06:17:56.703Z,99720.61
2019-01-26T06:20:22.505Z,99718.43
2019-01-26T06:22:48.322Z,99722.09
2019-01-26T06:25:55.753Z,99721.60
2019-01-26T06:28:21.524Z,99722.12
2019-01-26T06:31:07.173Z,99721.60
2019-01-26T06:33:32.941Z,99721.60
2019-01-26T06:35:58.697Z,99723.27
2019-01-26T06:38:24.459Z,99715.61
2019-01-26T06:40:50.228Z,99721.27
2019-01-26T06:43:16.002Z,99715.77
2019-01-26T06:45:41.751Z,99707.97
2019-01-26T06:48:07.528Z,99708.64
2019-01-26T06:50:33.282Z,99708.64
2019-01-26T06:52:59.030Z,99709.81
2019-01-26T06:55:24.899Z,99711.63
2019-01-26T06:57:50.662Z,99715.96
2019-01-26T07:00:58.112Z,99715.96
2019-01-26T07:03:23.881Z,99709.31
2019-01-26T07:08:36.963Z,99701.48
2019-01-26T07:11:02.703Z,99704.47
2019-01-26T07:13:28.468Z,99700.34
2019-01-26T07:18:41.552Z,99698.00
2019-01-26T07:21:07.402Z,99701.00
2019-01-26T07:23:33.200Z,99702.50
2019-01-26T07:25:58.953Z,99699.83
2019-01-26T07:28:24.703Z,99692.84
2019-01-26T07:30:50.481Z,99695.84
2019-01-26T07:33:16.229Z,99694.02
2019-01-26T07:35:42.097Z,99693.35
2019-01-26T07:38:13.533Z,99697.32
2019-01-26T07:40:35.530Z,99697.99
2019-01-26T07:43:01.281Z,99702.50
2019-01-26T07:45:27.069Z,99702.32
2019-01-26T07:47:52.827Z,99707.16
2019-01-26T07:51:00.283Z,99706.98
2019-01-26T07:53:26.041Z,99711.13
2019-01-26T07:55:51.806Z,99711.82
2019-01-26T07:58:17.553Z,99718.30
2019-01-26T08:00:43.321Z,99720.62
2019-01-26T08:03:09.071Z,99718.95
2019-01-26T08:05:34.838Z,99712.80
2019-01-26T08:08:00.591Z,99710.32
2019-01-26T08:10:26.379Z,99719.45
2019-01-26T08:12:52.230Z,99718.30
2019-01-26T08:15:37.871Z,99716.78
2019-01-26T08:18:03.630Z,99714.95
2019-01-26T08:20:29.408Z,99713.13
2019-01-26T08:22:55.164Z,99712.63
2019-01-26T08:25:20.932Z,99714.80
2019-01-26T08:27:46.777Z,99710.47
2019-01-26T08:30:54.406Z,99706.97
2019-01-26T08:33:20.377Z,99706.49
2019-01-26T08:35:46.156Z,99708.47
2019-01-26T08:38:12.008Z,99708.14
2019-01-26T08:41:19.458Z,99717.46
2019-01-26T08:43:45.224Z,99719.61
2019-01-26T08:46:10.984Z,99726.76
2019-01-26T08:48:36.737Z,99724.59
2019-01-26T08:51:02.500Z,99725.89
2019-01-26T08:53:28.251Z,99734.39
2019-01-26T08:55:54.018Z,99728.41
2019-01-26T08:58:19.777Z,99728.58
2019-01-26T09:00:45.537Z,99716.23
2019-01-26T09:06:04.783Z,99720.90
2019-01-26T09:08:30.542Z,99721.75
2019-01-26T09:10:56.328Z,99719.57
2019-01-26T09:13:22.077Z,99733.89
2019-01-26T09:15:47.825Z,99731.89
2019-01-26T09:18:13.600Z,99726.20
2019-01-26T09:20:39.349Z,99730.38
2019-01-26T09:23:05.216Z,99735.86
2019-01-26T09:25:30.966Z,99727.53
2019-01-26T09:30:30.731Z,99734.34
2019-01-26T09:32:56.518Z,99737.52
2019-01-26T09:35:22.268Z,99730.67
2019-01-26T09:37:48.034Z,99733.19
2019-01-26T09:43:40.881Z,99727.83
2019-01-26T09:46:06.629Z,99726.98
2019-01-26T09:48:32.386Z,99721.64
2019-01-26T09:50:58.149Z,99718.80
2019-01-26T09:54:05.607Z,99717.46
2019-01-26T09:56:31.361Z,99714.13
2019-01-26T09:58:57.135Z,99719.41
2019-01-26T10:01:22.890Z,99721.74
2019-01-26T10:03:49.494Z,99720.73
2019-01-26T10:06:16.320Z,99719.40
2019-01-26T10:08:42.092Z,99725.73
2019-01-26T10:11:07.935Z,99720.22
2019-01-26T10:13:33.702Z,99719.20
2019-01-26T10:15:59.452Z,99717.69
2019-01-26T10:18:25.217Z,99712.21
2019-01-26T10:20:50.970Z,99710.36
2019-01-26T10:23:16.883Z,99720.03
2019-01-26T10:25:48.615Z,99719.69
2019-01-26T10:28:10.295Z,99720.36
2019-01-26T10:33:49.480Z,99713.68
2019-01-26T10:36:35.256Z,99719.82
2019-01-26T10:39:01.030Z,99715.82
2019-01-26T10:46:48.400Z,99731.30
2019-01-26T10:49:14.174Z,99717.81
2019-01-26T10:51:40.129Z,99713.43
2019-01-26T10:54:05.983Z,99710.42
2019-01-26T10:56:31.740Z,99715.42
2019-01-26T10:58:57.578Z,99710.23
2019-01-26T11:01:23.431Z,99702.75
2019-01-26T11:04:11.305Z,99702.23
2019-01-26T11:06:37.285Z,99697.55
2019-01-26T11:09:44.737Z,99692.69
2019-01-26T11:12:10.481Z,99697.07
2019-01-26T11:14:36.245Z,99696.20
2019-01-26T11:17:02.102Z,99694.03
2019-01-26T11:19:27.883Z,99700.87
2019-01-26T11:21:53.633Z,99697.87
2019-01-26T11:24:19.389Z,99695.86
2019-01-26T11:26:49.259Z,99705.15
2019-01-26T11:29:12.808Z,99699.48
2019-01-26T11:34:34.001Z,99697.46
2019-01-26T11:36:59.845Z,99700.95
2019-01-26T11:39:25.611Z,99699.94
2019-01-26T11:41:52.924Z,99694.80
2019-01-26T11:44:18.774Z,99693.73
2019-01-26T11:46:44.642Z,99684.78
2019-01-26T11:49:15.038Z,99690.58
2019-01-26T11:54:11.774Z,99680.05
2019-01-26T11:56:57.727Z,99685.91
2019-01-26T11:59:23.526Z,99686.25
2019-01-26T12:09:30.797Z,99686.38
2019-01-26T12:11:56.566Z,99687.36
2019-01-26T12:14:22.314Z,99691.36
2019-01-26T12:16:48.077Z,99683.84
2019-01-26T12:19:13.834Z,99681.36
2019-01-26T12:21:39.654Z,99685.37
2019-01-26T12:24:05.433Z,99682.18
2019-01-26T12:26:31.191Z,99678.03
2019-01-26T12:28:56.945Z,99674.55
2019-01-26T12:31:22.714Z,99666.17
2019-01-26T12:33:48.468Z,99661.35
2019-01-26T12:36:14.272Z,99668.70
2019-01-26T12:38:40.038Z,99660.34
2019-01-26T12:41:05.797Z,99657.58
2019-01-26T12:43:31.575Z,99657.25
2019-01-26T12:45:58.205Z,99662.80
2019-01-26T12:48:24.070Z,99652.67
2019-01-26T12:50:49.829Z,99658.00
2019-01-26T12:53:15.592Z,99647.66
2019-01-26T12:55:41.345Z,99652.48
2019-01-26T12:58:07.110Z,99649.83
2019-01-26T13:00:32.864Z,99646.05
2019-01-26T13:02:58.631Z,99646.02
2019-01-26T13:05:24.423Z,99644.66
2019-01-26T13:07:50.201Z,99635.67
2019-01-26T13:10:57.635Z,99636.16
2019-01-26T13:13:23.429Z,99631.56
2019-01-26T13:15:49.148Z,99626.99
2019-01-26T13:18:15.113Z,99623.12
2019-01-26T13:20:40.866Z,99621.79
2019-01-26T13:23:06.731Z,99626.94
2019-01-26T13:25:32.580Z,99626.09
2019-01-26T13:27:58.346Z,99627.54
2019-01-26T13:30:24.201Z,99618.52
2019-01-26T13:32:50.015Z,99619.86
2019-01-26T13:35:15.765Z,99620.45
2019-01-26T13:37:41.531Z,99618.54
2019-01-26T13:40:28.069Z,99621.41
2019-01-26T13:42:53.824Z,99624.23
2019-01-26T13:45:19.589Z,99621.92
2019-01-26T13:47:45.396Z,99612.91
2019-01-26T13:50:52.829Z,99618.08
2019-01-26T13:53:18.595Z,99606.85
2019-01-26T13:55:44.346Z,99605.52
2019-01-26T13:58:10.105Z,99595.66
2019-01-26T14:04:02.983Z,99596.98
2019-01-26T14:06:28.735Z,99598.84
2019-01-26T14:08:54.499Z,99591.19
2019-01-26T14:11:20.252Z,99590.31
2019-01-26T14:13:46.052Z,99594.31
2019-01-26T14:16:11.768Z,99582.17
2019-01-26T14:18:37.528Z,99589.52
2019-01-26T14:21:03.387Z,99582.20
2019-01-26T14:23:29.153Z,99576.73
2019-01-26T14:25:54.929Z,99565.89
2019-01-26T14:28:20.734Z,99570.08
2019-01-26T14:34:13.568Z,99569.76
2019-01-26T14:36:39.313Z,99570.22
2019-01-26T14:39:46.768Z,99564.23
2019-01-26T14:42:12.521Z,99566.27
2019-01-26T14:44:38.302Z,99570.90
2019-01-26T14:47:04.049Z,99564.61
2019-01-26T14:49:29.830Z,99570.95
2019-01-26T14:51:55.561Z,99569.30
2019-01-26T14:54:21.318Z,99568.29
2019-01-26T14:56:47.090Z,99563.96
2019-01-26T14:59:12.847Z,99560.77
2019-01-26T15:01:38.601Z,99557.55
2019-01-26T15:04:04.370Z,99554.08
2019-01-26T15:06:30.124Z,99553.55
2019-01-26T15:08:55.893Z,99552.94
2019-01-26T15:11:21.635Z,99550.59
2019-01-26T15:13:47.384Z,99548.96
2019-01-26T15:16:13.150Z,99552.96
2019-01-26T15:18:38.900Z,99549.83
2019-01-26T15:21:04.782Z,99547.33
2019-01-26T15:23:30.534Z,99548.98
2019-01-26T15:25:56.302Z,99543.39
2019-01-26T15:28:22.049Z,99545.20
2019-01-26T15:30:47.812Z,99546.44
2019-01-26T15:33:13.563Z,99544.28
2019-01-26T15:35:39.332Z,99546.27
2019-01-26T15:41:32.163Z,99540.50
2019-01-26T15:43:57.924Z,99542.49
2019-01-26T15:46:23.692Z,99536.83
2019-01-26T15:48:49.446Z,99531.66
2019-01-26T15:51:15.216Z,99527.17
2019-01-26T15:53:40.980Z,99515.84
2019-01-26T15:56:06.741Z,99514.52
2019-01-26T15:58:32.494Z,99503.33
2019-01-26T16:00:58.280Z,99502.19
2019-01-26T16:03:24.029Z,99496.85
2019-01-26T16:05:49.804Z,99492.84
2019-01-26T16:08:15.566Z,99486.86
2019-01-26T16:10:41.332Z,99485.20
2019-01-26T16:13:07.193Z,99479.73
2019-01-26T16:16:14.656Z,99483.73
2019-01-26T16:18:40.404Z,99488.74
2019-01-26T16:21:06.176Z,99475.92
2019-01-26T16:23:31.933Z,99478.76
2019-01-26T16:25:57.702Z,99469.09
2019-01-26T16:28:23.458Z,99474.63
2019-01-26T16:30:49.228Z,99470.62
2019-01-26T16:33:14.974Z,99467.83
2019-01-26T16:35:40.747Z,99465.97
2019-01-26T16:38:06.616Z,99471.95
2019-01-26T16:41:14.061Z,99461.30
2019-01-26T16:43:39.814Z,99460.64
2019-01-26T16:46:05.570Z,99457.32
2019-01-26T16:48:31.329Z,99453.64
2019-01-26T16:50:57.211Z,99446.00
2019-01-26T16:53:22.958Z,99445.32
2019-01-26T16:55:48.715Z,99439.63
2019-01-26T16:58:14.483Z,99444.13
2019-01-26T17:01:21.917Z,99438.27
2019-01-26T17:03:47.675Z,99436.22
2019-01-26T17:08:47.407Z,99434.98
2019-01-26T17:11:13.168Z,99424.48
2019-01-26T17:13:38.920Z,99422.17
2019-01-26T17:16:04.688Z,99420.48
2019-01-26T17:18:30.432Z,99413.98
2019-01-26T17:20:56.213Z,99413.63
2019-01-26T17:23:21.957Z,99408.80
2019-01-26T17:25:47.707Z,99405.84
2019-01-26T17:28:13.462Z,99400.55
2019-01-26T17:31:20.911Z,99393.88
2019-01-26T17:33:46.665Z,99389.27
2019-01-26T17:36:12.436Z,99391.73
2019-01-26T17:38:38.189Z,99387.22
2019-01-26T17:41:03.944Z,99387.41
2019-01-26T17:43:29.745Z,99378.89
2019-01-26T17:45:55.486Z,99372.55
2019-01-26T17:48:21.245Z,99369.39
2019-01-26T17:50:47.004Z,99372.55
2019-01-26T17:53:12.771Z,99370.59
2019-01-26T17:55:38.526Z,99374.20
2019-01-26T17:58:04.302Z,99366.40
2019-01-26T18:03:37.276Z,99351.28
2019-01-26T18:06:03.230Z,99347.97
2019-01-26T18:08:29.012Z,99335.93
2019-01-26T18:10:54.757Z,99342.20
2019-01-26T18:13:20.522Z,99339.05
2019-01-26T18:15:46.275Z,99332.51
2019-01-26T18:18:12.036Z,99323.50
2019-01-26T18:20:37.790Z,99325.97
2019-01-26T18:23:03.658Z,99320.77
2019-01-26T18:25:49.303Z,99323.88
2019-01-26T18:28:15.079Z,99315.06
2019-01-26T18:30:40.842Z,99316.15
2019-01-26T18:33:06.799Z,99309.20
2019-01-26T18:35:32.554Z,99307.83
2019-01-26T18:37:58.329Z,99310.05
2019-01-26T18:41:05.789Z,99301.47
2019-01-26T18:43:31.550Z,99290.80
2019-01-26T18:45:57.298Z,99289.10
2019-01-26T18:50:56.280Z,99284.13
2019-01-26T18:53:22.295Z,99298.27
2019-01-26T18:55:48.045Z,99278.73
2019-01-26T18:58:13.896Z,99269.84
2019-01-26T19:01:21.347Z,99273.16
2019-01-26T19:04:28.788Z,99267.49
2019-01-26T19:06:54.546Z,99264.66
2019-01-26T19:09:20.313Z,99264.08
2019-01-26T19:11:46.070Z,99262.92
2019-01-26T19:14:11.836Z,99259.70
2019-01-26T19:16:37.704Z,99251.38
2019-01-26T19:19:03.570Z,99252.63
2019-01-26T19:21:29.319Z,99239.92
2019-01-26T19:23:55.087Z,99241.95
2019-01-26T19:26:20.837Z,99239.97
2019-01-26T19:28:46.584Z,99235.27
2019-01-26T19:31:12.345Z,99234.26
2019-01-26T19:34:19.854Z,99226.45
2019-01-26T19:36:45.607Z,99231.85
2019-01-26T19:39:11.376Z,99220.59
2019-01-26T19:41:37.137Z,99225.13
2019-01-26T19:47:16.408Z,99217.98
2019-01-26T19:49:42.174Z,99212.58
2019-01-26T19:52:08.027Z,99208.25
2019-01-26T19:54:33.789Z,99149.05
2019-01-26T19:56:59.548Z,99205.11
2019-01-26T19:59:25.329Z,99190.25
2019-01-26T20:01:51.079Z,99192.19
2019-01-26T20:04:16.823Z,99180.95
2019-01-26T20:06:42.590Z,99180.04
2019-01-26T20:09:09.397Z,99174.84
2019-01-26T20:11:36.118Z,99167.47
2019-01-26T20:14:01.966Z,99162.23
2019-01-26T20:16:27.730Z,99162.48
2019-01-26T20:18:53.500Z,99156.44
2019-01-26T20:21:19.276Z,99153.55
2019-01-26T20:23:45.038Z,99150.67
2019-01-26T20:26:10.814Z,99146.59
2019-01-26T20:28:36.573Z,99145.57
2019-01-26T20:31:44.042Z,99143.92
2019-01-26T20:34:09.794Z,99138.08
2019-01-26T20:36:35.562Z,99136.88
2019-01-26T20:39:01.323Z,99128.02
2019-01-26T20:41:27.085Z,99128.73
2019-01-26T20:43:52.855Z,99131.53
2019-01-26T20:46:18.628Z,99124.86
2019-01-26T20:48:44.382Z,99122.91
2019-01-26T20:57:37.468Z,99103.50
2019-01-26T21:00:43.210Z,99102.48
2019-01-26T21:03:09.003Z,99104.91
2019-01-26T21:05:34.834Z,99098.16
2019-01-26T21:08:00.559Z,99101.77
2019-01-26T21:11:07.998Z,99096.21
2019-01-26T21:13:34.059Z,99096.70
2019-01-26T21:16:00.165Z,99099.38
2019-01-26T21:18:26.283Z,99089.42
2019-01-26T21:20:52.294Z,99088.48
2019-01-26T21:23:18.258Z,99096.81
2019-01-26T21:25:44.017Z,99092.09
2019-01-26T21:28:09.781Z,99084.18
2019-01-26T21:30:35.536Z,99083.34
2019-01-26T21:33:01.314Z,99072.34
2019-01-26T21:35:27.081Z,99066.69
2019-01-26T21:37:53.311Z,99070.06
2019-01-26T21:41:00.884Z,99066.98
2019-01-26T21:43:26.919Z,99066.87
2019-01-26T21:45:52.669Z,99062.25
2019-01-26T21:48:18.816Z,99066.16
2019-01-26T21:50:44.557Z,99062.78
2019-01-26T21:53:10.320Z,99056.80
2019-01-26T21:55:36.073Z,99051.97
2019-01-26T21:58:01.833Z,99046.30
2019-01-26T22:01:09.416Z,99041.45
2019-01-26T22:03:55.526Z,99035.09
2019-01-26T22:06:21.586Z,99032.95
2019-01-26T22:08:47.373Z,99031.16
2019-01-26T22:11:13.124Z,99015.66
2019-01-26T22:13:38.893Z,99014.32
2019-01-26T22:16:04.643Z,99006.93
2019-01-26T22:18:30.408Z,99017.09
2019-01-26T22:20:56.165Z,99012.27
2019-01-26T22:23:21.948Z,99004.75
2019-01-26T22:25:47.697Z,99005.52
2019-01-26T22:28:13.464Z,99006.22
2019-01-26T22:30:39.227Z,99001.59
2019-01-26T22:33:05.001Z,99000.43
2019-01-26T22:35:30.771Z,99002.61
2019-01-26T22:37:56.538Z,98990.59
2019-01-26T22:43:49.380Z,98984.92
2019-01-26T22:46:15.124Z,98993.25
2019-01-26T22:48:40.895Z,98982.02
2019-01-26T22:51:06.652Z,98971.78
2019-01-26T22:53:32.412Z,98973.42
2019-01-26T22:56:05.192Z,98967.33
2019-01-26T22:58:30.954Z,98958.81
2019-01-26T23:05:05.546Z,98952.45
2019-01-26T23:07:31.302Z,98942.69
2019-01-26T23:10:38.762Z,98933.92
2019-01-26T23:13:25.212Z,98924.07
2019-01-26T23:16:32.634Z,98920.67
2019-01-26T23:19:40.078Z,98914.72
2019-01-26T23:26:14.592Z,98906.08
2019-01-26T23:32:13.753Z,98893.44
2019-01-26T23:34:39.516Z,98889.64
2019-01-26T23:37:05.274Z,98887.78
2019-01-26T23:39:31.047Z,98877.22
2019-01-26T23:41:56.810Z,98875.35
2019-01-26T23:44:22.580Z,98870.85
2019-01-26T23:46:48.337Z,98865.20
2019-01-26T23:49:14.091Z,98868.27
2019-01-26T23:51:39.954Z,98864.75
2019-01-26T23:54:05.712Z,98854.61
2019-01-26T23:56:31.483Z,98852.43
2019-01-26T23:58:57.235Z,98846.19
